Time;durP1;ratioP1;P1;durP2;ratioP2;P2;SDS_P1;SDS_P2;PMS_P1;PMS_P2;Temp;Humidity;BMP_temperature;BMP_pressure;BME280_temperature;BME280_humidity;BME280_pressure;Samples;Min_cycle;Max_cycle;Signal;HPM_P1;HPM_P2
2023/03/01 05:05:50;;;;;;;12.38;7.80;;;1.50;99.90;;;;;;5221454;22;20719;-67
2023/03/01 05:08:20;;;;;;;11.55;7.20;;;1.50;99.90;;;;;;5032019;28;20587;-64
2023/03/01 05:10:51;;;;;;;11.95;7.82;;;1.60;99.90;;;;;;5033249;28;20158;-65
2023/03/01 05:13:20;;;;;;;10.18;6.43;;;1.50;99.90;;;;;;5032671;28;20166;-66
2023/03/01 05:15:55;;;;;;;12.68;7.75;;;1.50;99.90;;;;;;5032457;28;20285;-65
2023/03/01 05:18:25;;;;;;;9.52;7.90;;;1.50;99.90;;;;;;5034795;28;20174;-66
2023/03/01 05:20:56;;;;;;;10.05;6.30;;;1.40;99.90;;;;;;5036452;28;20150;-66
2023/03/01 05:23:22;;;;;;;10.63;8.07;;;1.40;99.90;;;;;;5035963;28;20166;-66
2023/03/01 05:25:49;;;;;;;9.23;5.57;;;1.40;99.90;;;;;;5035820;28;20206;-66
2023/03/01 05:28:14;;;;;;;10.23;7.95;;;1.40;99.90;;;;;;5036213;28;20194;-67
2023/03/01 05:30:41;;;;;;;10.97;8.20;;;1.40;99.90;;;;;;5036457;28;20254;-65
2023/03/01 05:33:13;;;;;;;16.88;7.82;;;1.40;99.90;;;;;;5035735;28;20431;-67
2023/03/01 05:35:43;;;;;;;7.50;6.80;;;1.30;99.90;;;;;;5034768;28;20192;-65
2023/03/01 05:38:13;;;;;;;14.15;8.20;;;1.40;99.90;;;;;;5036264;28;20212;-68
2023/03/01 05:40:40;;;;;;;12.50;7.85;;;1.40;99.90;;;;;;5036169;28;20222;-65
2023/03/01 05:43:06;;;;;;;8.88;7.18;;;1.40;99.90;;;;;;5035683;28;20231;-68
2023/03/01 05:45:32;;;;;;;12.47;8.87;;;1.30;99.90;;;;;;5035611;28;20194;-66
2023/03/01 05:47:58;;;;;;;10.07;7.40;;;1.30;99.90;;;;;;5035746;28;20637;-67
2023/03/01 05:50:26;;;;;;;11.40;8.00;;;1.30;99.90;;;;;;5035891;28;20173;-68
2023/03/01 05:52:58;;;;;;;9.32;7.22;;;1.20;99.90;;;;;;5035744;28;20162;-68
2023/03/01 05:55:23;;;;;;;11.75;7.63;;;1.10;99.90;;;;;;5027904;28;20193;-68
2023/03/01 05:57:52;;;;;;;11.70;7.37;;;1.10;99.90;;;;;;5026719;28;20232;-67
2023/03/01 06:00:21;;;;;;;9.65;6.93;;;1.20;99.90;;;;;;5035329;28;20166;-68
2023/03/01 06:02:47;;;;;;;16.15;8.88;;;1.10;99.90;;;;;;5035478;28;20185;-67
2023/03/01 06:05:13;;;;;;;13.30;8.73;;;1.20;99.90;;;;;;5034805;28;20190;-69
2023/03/01 06:07:39;;;;;;;13.00;7.50;;;1.20;99.90;;;;;;5034882;28;20216;-67
2023/03/01 06:10:06;;;;;;;9.90;7.70;;;1.20;99.90;;;;;;5035185;28;20233;-69
2023/03/01 06:12:37;;;;;;;19.48;9.48;;;1.10;99.90;;;;;;5035378;28;20236;-67
2023/03/01 06:15:04;;;;;;;12.77;8.13;;;1.20;99.90;;;;;;5034311;28;20182;-69
2023/03/01 06:17:32;;;;;;;14.35;9.05;;;1.10;99.90;;;;;;5024615;28;20764;-67
2023/03/01 06:19:57;;;;;;;17.70;10.75;;;1.10;99.90;;;;;;5014124;28;20202;-65
2023/03/01 06:22:23;;;;;;;8.17;5.77;;;1.10;99.90;;;;;;5024393;28;20639;-68
2023/03/01 06:24:49;;;;;;;15.30;7.63;;;1.10;99.90;;;;;;5015064;28;20464;-67
2023/03/01 06:27:15;;;;;;;15.65;9.40;;;1.10;99.90;;;;;;5017863;28;20179;-68
2023/03/01 06:29:41;;;;;;;11.27;8.60;;;1.20;99.90;;;;;;5029062;28;20206;-67
2023/03/01 06:32:07;;;;;;;20.10;7.80;;;1.20;99.90;;;;;;5035188;28;20404;-69
2023/03/01 06:34:33;;;;;;;12.48;6.50;;;1.30;99.90;;;;;;5030610;28;20190;-68
2023/03/01 06:36:59;;;;;;;13.30;8.07;;;1.30;99.90;;;;;;5025182;28;20637;-69
2023/03/01 06:39:25;;;;;;;16.80;9.50;;;1.40;99.90;;;;;;5034921;28;20492;-70
2023/03/01 06:41:50;;;;;;;14.73;8.27;;;1.50;99.90;;;;;;5034865;28;20217;-70
2023/03/01 06:44:16;;;;;;;13.73;8.37;;;1.60;99.90;;;;;;5032534;28;20232;-67
2023/03/01 06:46:41;;;;;;;9.90;7.57;;;1.60;99.90;;;;;;5034348;28;20592;-69
2023/03/01 06:49:09;;;;;;;15.17;8.23;;;1.60;99.90;;;;;;5034176;28;20298;-68
2023/03/01 06:51:36;;;;;;;13.68;9.20;;;1.70;99.90;;;;;;5033982;28;20257;-68
2023/03/01 06:54:03;;;;;;;13.70;9.32;;;1.80;99.90;;;;;;5032578;28;20290;-68
2023/03/01 06:56:29;;;;;;;9.82;7.05;;;2.00;99.90;;;;;;5026214;28;20181;-69
2023/03/01 06:58:55;;;;;;;14.30;9.23;;;2.20;99.90;;;;;;5030254;28;20192;-68
2023/03/01 07:01:20;;;;;;;12.90;8.60;;;2.50;99.90;;;;;;5022726;28;20181;-69
2023/03/01 07:03:46;;;;;;;12.00;8.57;;;2.70;99.90;;;;;;5026951;28;20646;-65
2023/03/01 07:06:11;;;;;;;10.40;8.20;;;3.00;99.90;;;;;;5018943;28;20193;-69
2023/03/01 07:08:37;;;;;;;10.10;8.43;;;3.30;99.90;;;;;;5013854;28;20241;-69
2023/03/01 07:11:03;;;;;;;10.43;6.60;;;3.60;99.90;;;;;;5014098;28;20175;-68
2023/03/01 07:13:29;;;;;;;10.60;9.48;;;3.90;99.90;;;;;;5014027;28;20186;-70
2023/03/01 07:15:55;;;;;;;8.80;7.70;;;4.40;99.80;;;;;;5033353;28;20196;-70
2023/03/01 07:18:21;;;;;;;12.07;9.63;;;4.70;98.70;;;;;;5033036;28;20413;-68
2023/03/01 07:20:46;;;;;;;16.33;9.80;;;5.20;98.60;;;;;;5030009;28;20973;-68
2023/03/01 07:23:12;;;;;;;15.87;9.23;;;5.50;97.00;;;;;;5016535;28;20589;-68
2023/03/01 07:25:37;;;;;;;11.70;7.37;;;5.50;96.00;;;;;;5016607;28;20233;-68
2023/03/01 07:28:03;;;;;;;12.40;8.60;;;5.50;95.90;;;;;;5022583;28;20186;-68
2023/03/01 07:30:29;;;;;;;11.00;8.77;;;5.50;95.90;;;;;;5019438;28;20604;-67
2023/03/01 07:32:56;;;;;;;17.40;9.30;;;5.50;95.50;;;;;;5013931;28;20177;-68
2023/03/01 07:35:23;;;;;;;14.20;8.63;;;5.60;95.90;;;;;;5016904;28;20656;-68
2023/03/01 07:37:48;;;;;;;11.80;8.68;;;5.80;95.30;;;;;;5015327;28;20547;-68
2023/03/01 07:40:14;;;;;;;10.57;8.17;;;6.10;95.30;;;;;;5016901;28;20174;-66
2023/03/01 07:42:39;;;;;;;14.43;8.60;;;6.40;94.30;;;;;;5024337;28;20182;-68
2023/03/01 07:45:06;;;;;;;9.33;7.60;;;6.60;94.00;;;;;;5027098;28;20249;-67
2023/03/01 07:47:32;;;;;;;11.77;9.10;;;6.80;93.70;;;;;;5014131;28;20558;-67
2023/03/01 07:49:58;;;;;;;9.40;7.32;;;7.00;93.30;;;;;;5022256;28;20666;-69
2023/03/01 07:52:24;;;;;;;9.50;7.60;;;7.30;93.20;;;;;;5021686;28;20312;-68
2023/03/01 07:54:49;;;;;;;9.93;8.47;;;7.70;92.40;;;;;;5012431;28;20193;-69
2023/03/01 07:57:15;;;;;;;11.57;8.47;;;8.10;91.60;;;;;;5023619;28;20410;-67
2023/03/01 07:59:40;;;;;;;11.33;7.73;;;8.40;90.40;;;;;;5023360;28;20180;-67
2023/03/01 08:02:07;;;;;;;9.30;8.40;;;8.40;90.60;;;;;;5030530;28;20181;-68
2023/03/01 08:04:33;;;;;;;10.30;7.60;;;8.70;90.40;;;;;;5033137;28;20189;-67
2023/03/01 08:06:59;;;;;;;12.40;9.50;;;9.00;90.20;;;;;;5033353;28;20971;-68
2023/03/01 08:09:25;;;;;;;11.27;9.00;;;9.50;87.70;;;;;;5033232;28;20212;-69
2023/03/01 08:11:50;;;;;;;14.13;9.43;;;9.70;86.10;;;;;;5033228;28;20212;-70
2023/03/01 08:14:16;;;;;;;16.80;9.77;;;10.10;84.30;;;;;;5032890;28;20446;-69
2023/03/01 08:16:42;;;;;;;13.60;9.47;;;10.10;82.40;;;;;;5027225;28;20174;-70
2023/03/01 08:19:10;;;;;;;12.70;9.50;;;9.90;84.90;;;;;;5032942;28;20405;-70
2023/03/01 08:21:37;;;;;;;14.50;9.80;;;10.20;82.20;;;;;;5033304;28;20230;-69
2023/03/01 08:24:05;;;;;;;17.17;10.60;;;10.20;80.30;;;;;;5032688;28;20432;-68
2023/03/01 08:26:31;;;;;;;12.70;8.70;;;10.30;79.80;;;;;;5017691;28;20402;-69
2023/03/01 08:28:57;;;;;;;13.70;9.17;;;10.50;80.20;;;;;;5011991;28;20461;-69
2023/03/01 08:31:28;;;;;;;10.30;8.60;;;10.90;79.60;;;;;;5014259;28;20406;-69
2023/03/01 08:33:57;;;;;;;12.87;10.00;;;10.90;78.60;;;;;;5032624;28;20178;-69
2023/03/01 08:36:24;;;;;;;11.60;8.87;;;10.70;78.10;;;;;;5032989;28;20401;-71
2023/03/01 08:38:50;;;;;;;15.70;10.90;;;10.80;77.90;;;;;;5033139;28;20434;-69
2023/03/01 08:41:16;;;;;;;10.50;9.13;;;11.00;77.40;;;;;;5032913;28;20416;-70
2023/03/01 08:43:41;;;;;;;12.63;9.30;;;10.90;76.50;;;;;;5029282;28;20586;-70
2023/03/01 08:46:07;;;;;;;10.73;8.93;;;11.10;77.60;;;;;;5029660;28;20179;-69
2023/03/01 08:48:33;;;;;;;12.93;8.70;;;11.30;76.50;;;;;;5014396;28;20233;-67
2023/03/01 08:51:08;;;;;;;14.50;10.80;;;11.70;76.00;;;;;;5013384;28;20167;-70
2023/03/01 08:53:34;;;;;;;11.90;9.23;;;12.10;75.30;;;;;;5015025;28;20171;-69
2023/03/01 08:56:03;;;;;;;13.03;10.10;;;12.10;75.20;;;;;;5018419;28;20749;-69
2023/03/01 08:58:29;;;;;;;12.00;9.13;;;12.20;73.60;;;;;;5017306;28;20507;-69
2023/03/01 09:00:56;;;;;;;14.17;9.83;;;12.10;73.20;;;;;;5017216;28;20902;-68
2023/03/01 09:03:22;;;;;;;11.33;9.33;;;12.20;73.50;;;;;;5016505;28;20425;-68
2023/03/01 09:05:50;;;;;;;10.17;9.10;;;12.40;72.40;;;;;;5016494;28;20456;-69
2023/03/01 09:08:16;;;;;;;11.67;9.47;;;12.40;71.80;;;;;;5017806;28;20483;-68
2023/03/01 09:10:42;;;;;;;12.80;10.00;;;12.50;71.10;;;;;;5026033;28;20380;-68
2023/03/01 09:13:08;;;;;;;14.90;11.07;;;12.50;71.40;;;;;;5023416;28;20425;-68
2023/03/01 09:15:33;;;;;;;15.93;10.47;;;12.50;71.70;;;;;;5019481;28;20202;-69
2023/03/01 09:17:59;;;;;;;10.53;9.33;;;12.90;71.80;;;;;;5016875;28;20959;-70
2023/03/01 09:20:25;;;;;;;18.47;11.00;;;13.40;70.70;;;;;;5016688;28;20171;-69
2023/03/01 09:22:51;;;;;;;12.20;10.20;;;13.90;70.40;;;;;;5018069;28;20469;-69
2023/03/01 09:25:16;;;;;;;12.07;10.13;;;14.40;69.50;;;;;;5020945;28;20283;-68
2023/03/01 09:27:42;;;;;;;16.27;10.90;;;14.70;68.10;;;;;;5024139;28;20178;-67
2023/03/01 09:30:08;;;;;;;14.27;10.20;;;15.00;67.70;;;;;;5018659;28;20619;-68
2023/03/01 09:32:34;;;;;;;13.80;9.40;;;15.40;66.90;;;;;;5014919;28;20198;-71
2023/03/01 09:35:05;;;;;;;12.90;10.93;;;15.80;65.70;;;;;;5021013;28;20416;-69
2023/03/01 09:37:35;;;;;;;12.53;9.83;;;16.20;62.20;;;;;;5015968;28;20162;-69
2023/03/01 09:40:03;;;;;;;13.43;11.07;;;16.40;60.70;;;;;;5020744;28;20457;-69
2023/03/01 09:42:33;;;;;;;12.23;9.73;;;16.20;59.80;;;;;;5016464;28;20936;-68
2023/03/01 09:45:04;;;;;;;10.53;9.10;;;16.00;59.60;;;;;;5033741;28;20487;-69
2023/03/01 09:47:32;;;;;;;12.50;9.70;;;15.60;59.90;;;;;;5016250;28;20446;-69
2023/03/01 09:50:12;;;;;;;11.80;8.77;;;15.30;60.00;;;;;;5015853;28;20381;-69
2023/03/01 09:52:45;;;;;;;12.37;10.63;;;15.00;60.40;;;;;;5028407;28;20414;-69
2023/03/01 09:55:14;;;;;;;14.47;8.70;;;14.80;60.80;;;;;;5023534;28;20441;-68
2023/03/01 09:57:55;;;;;;;12.00;9.70;;;14.50;61.20;;;;;;5032141;28;20388;-69
2023/03/01 10:00:35;;;;;;;12.07;8.50;;;14.40;62.20;;;;;;5026652;28;20413;-68
2023/03/01 10:03:17;;;;;;;16.90;9.77;;;14.50;61.80;;;;;;5035395;28;20852;-69
2023/03/01 10:06:02;;;;;;;11.63;9.87;;;14.70;61.40;;;;;;5034413;28;20440;-69
2023/03/01 10:08:38;;;;;;;13.00;10.90;;;14.90;61.00;;;;;;5035300;28;20417;-69
2023/03/01 10:11:12;;;;;;;12.50;10.00;;;14.70;60.70;;;;;;5028159;28;20412;-69
2023/03/01 10:14:12;;;;;;;14.10;9.37;;;14.70;61.20;;;;;;5033950;28;20458;-68
2023/03/01 10:16:48;;;;;;;9.30;8.33;;;14.60;60.80;;;;;;5035649;28;20401;-69
2023/03/01 10:19:30;;;;;;;11.20;9.17;;;14.30;61.70;;;;;;5022474;28;20812;-69
2023/03/01 10:22:03;;;;;;;15.53;9.33;;;14.50;62.20;;;;;;5020884;28;20452;-68
2023/03/01 10:24:34;;;;;;;13.03;9.70;;;14.90;61.30;;;;;;5021769;28;20441;-69
2023/03/01 10:27:22;;;;;;;11.17;8.97;;;14.80;59.90;;;;;;5016100;28;20402;-69
2023/03/01 10:30:16;;;;;;;14.70;9.13;;;14.50;60.60;;;;;;5015576;28;20409;-68
2023/03/01 10:32:42;;;;;;;10.83;9.37;;;14.40;61.40;;;;;;5014316;28;20944;-69
2023/03/01 10:35:28;;;;;;;12.13;9.80;;;14.40;61.90;;;;;;5025249;28;20463;-70
2023/03/01 10:38:04;;;;;;;12.37;9.10;;;14.30;61.20;;;;;;5027190;28;20417;-69
2023/03/01 10:40:31;;;;;;;10.83;8.50;;;14.10;61.90;;;;;;5032746;28;20459;-69
2023/03/01 10:43:03;;;;;;;9.10;8.10;;;14.00;62.60;;;;;;5015134;28;20896;-69
2023/03/01 10:45:28;;;;;;;9.87;7.93;;;14.00;61.80;;;;;;5014891;28;20513;-69
2023/03/01 10:48:14;;;;;;;10.20;8.90;;;13.90;62.50;;;;;;5027823;28;20444;-68
2023/03/01 10:50:45;;;;;;;10.13;9.00;;;14.10;62.10;;;;;;5034886;28;20175;-70
2023/03/01 10:53:28;;;;;;;13.60;9.60;;;14.10;61.60;;;;;;5033121;28;20405;-70
2023/03/01 10:56:14;;;;;;;11.17;9.43;;;14.20;61.30;;;;;;5015281;28;20428;-71
2023/03/01 10:58:56;;;;;;;12.20;10.13;;;14.20;61.70;;;;;;5025018;28;20464;-70
2023/03/01 11:01:26;;;;;;;12.83;8.80;;;14.10;62.00;;;;;;5022909;28;20834;-71
2023/03/01 11:04:06;;;;;;;11.07;8.90;;;13.90;61.90;;;;;;5024811;28;20485;-68
2023/03/01 11:06:33;;;;;;;13.13;8.60;;;13.90;62.50;;;;;;5019592;28;20795;-68
2023/03/01 11:09:15;;;;;;;11.67;9.23;;;13.90;62.00;;;;;;5034744;28;20432;-69
2023/03/01 11:11:41;;;;;;;11.73;8.93;;;13.90;62.00;;;;;;5034645;28;20401;-68
2023/03/01 11:14:37;;;;;;;10.17;7.90;;;13.60;62.10;;;;;;5034038;28;20506;-68
2023/03/01 11:17:05;;;;;;;11.97;9.10;;;13.60;62.80;;;;;;5024829;28;20425;-69
2023/03/01 11:19:32;;;;;;;10.07;8.07;;;13.60;63.00;;;;;;5034261;28;21043;-69
2023/03/01 11:22:20;;;;;;;11.37;8.53;;;13.30;63.00;;;;;;5034284;28;20405;-68
2023/03/01 11:24:53;;;;;;;11.37;8.80;;;13.10;63.70;;;;;;5032730;28;20436;-67
2023/03/01 11:27:24;;;;;;;10.87;8.23;;;12.90;64.00;;;;;;5034135;28;20403;-69
2023/03/01 11:29:55;;;;;;;12.20;8.90;;;12.20;64.20;;;;;;5034175;28;20482;-68
2023/03/01 11:32:26;;;;;;;12.47;7.77;;;11.50;65.50;;;;;;5034366;28;20401;-68
2023/03/01 11:35:01;;;;;;;11.10;8.27;;;10.60;68.10;;;;;;5033892;28;20522;-66
2023/03/01 11:37:44;;;;;;;9.73;8.27;;;10.00;69.00;;;;;;5034290;28;20847;-68
2023/03/01 11:40:25;;;;;;;11.17;7.70;;;9.60;71.40;;;;;;5034302;28;20529;-68
2023/03/01 11:43:21;;;;;;;11.35;7.60;;;9.10;72.90;;;;;;5034093;28;20761;-69
2023/03/01 11:46:02;;;;;;;10.25;7.78;;;8.90;74.40;;;;;;5033977;28;20332;-68
2023/03/01 11:48:45;;;;;;;8.43;7.07;;;8.70;75.30;;;;;;5034267;28;20641;-68
2023/03/01 11:51:35;;;;;;;9.75;7.90;;;8.50;75.70;;;;;;5033887;28;20580;-68
2023/03/01 11:54:26;;;;;;;9.77;6.22;;;8.20;76.80;;;;;;5033563;28;20186;-67
2023/03/01 11:57:06;;;;;;;7.82;6.53;;;8.00;77.70;;;;;;5034101;28;20260;-68
2023/03/01 11:59:51;;;;;;;11.15;8.57;;;7.90;78.40;;;;;;5033745;28;20206;-68
2023/03/01 12:02:38;;;;;;;14.40;7.97;;;7.90;78.60;;;;;;5030305;28;20167;-68
2023/03/01 12:05:34;;;;;;;8.48;6.03;;;7.90;79.00;;;;;;5018423;28;20198;-68
2023/03/01 12:08:29;;;;;;;8.98;6.63;;;7.90;79.00;;;;;;5028243;28;20192;-68
2023/03/01 12:11:28;;;;;;;11.75;7.45;;;7.90;79.40;;;;;;5033539;28;20177;-70
2023/03/01 12:14:15;;;;;;;9.55;7.85;;;7.90;80.20;;;;;;5026047;28;20254;-72
2023/03/01 12:16:47;;;;;;;11.23;7.10;;;8.00;79.90;;;;;;5021472;28;20634;-71
2023/03/01 12:19:37;;;;;;;7.60;6.18;;;7.90;80.10;;;;;;5023292;28;20197;-72
2023/03/01 12:22:29;;;;;;;9.90;7.38;;;7.90;80.50;;;;;;5022894;28;20175;-67
2023/03/01 12:25:13;;;;;;;10.23;7.85;;;8.00;81.20;;;;;;5022245;28;20181;-69
2023/03/01 12:27:58;;;;;;;12.60;7.13;;;8.10;80.40;;;;;;5021521;28;20166;-70
2023/03/01 12:30:32;;;;;;;11.63;7.25;;;8.10;80.10;;;;;;5022809;28;20538;-70
2023/03/01 12:33:19;;;;;;;9.35;6.88;;;8.10;80.30;;;;;;5021665;28;20177;-74
2023/03/01 12:36:05;;;;;;;12.70;8.00;;;8.20;80.30;;;;;;5022767;28;20187;-69
2023/03/01 12:38:56;;;;;;;8.65;6.88;;;8.10;80.10;;;;;;5023640;28;20198;-70
2023/03/01 12:41:28;;;;;;;10.25;6.68;;;8.00;80.60;;;;;;5019346;28;20574;-69
2023/03/01 12:44:31;;;;;;;11.25;7.15;;;8.10;80.80;;;;;;5022997;28;20185;-69
2023/03/01 12:47:30;;;;;;;12.38;7.88;;;8.10;81.00;;;;;;5016629;28;20180;-69
2023/03/01 12:50:04;;;;;;;8.27;6.38;;;8.20;81.20;;;;;;5032924;28;20173;-70
2023/03/01 12:52:41;;;;;;;7.45;6.63;;;8.30;80.80;;;;;;5041897;28;20177;-69
2023/03/01 12:55:33;;;;;;;6.35;5.70;;;8.30;80.60;;;;;;5030870;28;20554;-68
2023/03/01 12:57:58;;;;;;;9.80;7.18;;;8.30;80.40;;;;;;5013407;28;20233;-70
2023/03/01 13:00:30;;;;;;;6.43;5.43;;;8.30;80.40;;;;;;5013322;28;20198;-68
2023/03/01 13:03:28;;;;;;;8.68;5.75;;;8.30;80.80;;;;;;5013101;28;20199;-69
2023/03/01 13:06:00;;;;;;;12.40;7.95;;;8.40;80.60;;;;;;5032823;28;20206;-72
2023/03/01 13:08:36;;;;;;;8.75;6.50;;;8.50;80.60;;;;;;5021768;28;20190;-71
2023/03/01 13:11:05;;;;;;;8.05;7.25;;;8.50;80.30;;;;;;5016936;28;20727;-68
2023/03/01 13:13:31;;;;;;;12.30;5.75;;;8.50;80.80;;;;;;5015296;28;20183;-68
2023/03/01 13:16:17;;;;;;;8.52;5.45;;;8.60;80.70;;;;;;5015034;28;20202;-66
2023/03/01 13:18:43;;;;;;;10.73;7.22;;;8.60;80.70;;;;;;5032746;28;20190;-68
2023/03/01 13:21:09;;;;;;;12.33;6.90;;;8.80;81.00;;;;;;5017981;28;20181;-68
2023/03/01 13:23:38;;;;;;;7.20;6.35;;;8.80;80.40;;;;;;5012587;28;20167;-68
2023/03/01 13:26:13;;;;;;;6.70;6.10;;;8.80;80.20;;;;;;5013225;28;20590;-72
2023/03/01 13:28:48;;;;;;;9.23;6.70;;;8.80;80.00;;;;;;5012952;28;20174;-69
2023/03/01 13:31:19;;;;;;;10.65;6.45;;;8.70;80.00;;;;;;5013121;28;20178;-67
2023/03/01 13:33:55;;;;;;;7.45;6.38;;;8.70;80.30;;;;;;5011659;28;20508;-67
2023/03/01 13:36:47;;;;;;;13.77;8.57;;;8.60;80.20;;;;;;5013078;28;20281;-68
2023/03/01 13:39:32;;;;;;;13.80;8.48;;;8.60;80.40;;;;;;5011034;28;20211;-64
2023/03/01 13:41:59;;;;;;;7.93;7.10;;;8.60;81.20;;;;;;5017098;28;20188;-67
2023/03/01 13:44:38;;;;;;;8.85;6.78;;;8.70;81.80;;;;;;5017556;28;20626;-66
2023/03/01 13:47:07;;;;;;;8.10;7.05;;;8.70;80.70;;;;;;5016182;28;20182;-68
2023/03/01 13:49:58;;;;;;;13.52;8.98;;;8.60;81.10;;;;;;5016923;28;20603;-67
2023/03/01 13:52:43;;;;;;;13.75;8.45;;;8.60;82.00;;;;;;5016977;28;20174;-69
2023/03/01 13:55:16;;;;;;;10.65;8.30;;;8.70;82.90;;;;;;5016473;28;20187;-68
2023/03/01 13:57:46;;;;;;;12.55;7.63;;;8.50;82.80;;;;;;5016999;28;20170;-67
2023/03/01 14:00:36;;;;;;;13.02;9.52;;;8.40;84.00;;;;;;5016224;28;20198;-69
2023/03/01 14:03:11;;;;;;;11.32;8.18;;;8.40;84.30;;;;;;5016153;28;20174;-68
2023/03/01 14:05:39;;;;;;;11.25;8.05;;;8.40;84.10;;;;;;5015811;28;20194;-69
2023/03/01 14:08:17;;;;;;;10.75;7.75;;;8.40;84.30;;;;;;5014769;28;20182;-68
2023/03/01 14:11:14;;;;;;;14.20;8.65;;;8.50;84.70;;;;;;5016076;28;20646;-66
2023/03/01 14:14:18;;;;;;;13.82;9.30;;;8.50;84.40;;;;;;5015600;28;20187;-69
2023/03/01 14:16:50;;;;;;;10.93;8.60;;;8.50;84.00;;;;;;5000410;28;20210;-68
2023/03/01 14:19:30;;;;;;;11.27;9.32;;;8.40;83.40;;;;;;5015513;28;20282;-69
2023/03/01 14:22:24;;;;;;;10.82;8.10;;;8.40;83.30;;;;;;5035151;28;20225;-68
2023/03/01 14:25:02;;;;;;;10.63;8.00;;;8.40;82.90;;;;;;5025191;28;20186;-67
2023/03/01 14:27:41;;;;;;;12.27;7.63;;;8.40;82.80;;;;;;5015651;28;20166;-69
2023/03/01 14:30:44;;;;;;;9.32;6.68;;;8.40;82.70;;;;;;5014493;28;20175;-69
2023/03/01 14:33:19;;;;;;;10.00;7.55;;;8.40;82.90;;;;;;4994429;28;20545;-69
2023/03/01 14:35:55;;;;;;;12.48;7.95;;;8.30;83.00;;;;;;5034429;28;20224;-70
2023/03/01 14:38:38;;;;;;;12.57;7.78;;;8.30;83.10;;;;;;5033218;28;20185;-70
2023/03/01 14:41:17;;;;;;;8.18;6.82;;;8.30;83.30;;;;;;5035093;28;20692;-68
2023/03/01 14:43:47;;;;;;;12.10;7.85;;;8.30;83.90;;;;;;5035027;28;20482;-68
2023/03/01 14:46:36;;;;;;;14.18;8.00;;;8.30;84.20;;;;;;5034834;28;20178;-68
2023/03/01 14:49:09;;;;;;;13.18;8.85;;;8.30;84.80;;;;;;5034521;28;20186;-69
2023/03/01 14:51:40;;;;;;;13.40;9.30;;;8.30;85.10;;;;;;5033995;28;20531;-69
2023/03/01 14:54:26;;;;;;;9.95;8.18;;;8.30;84.80;;;;;;5034594;28;20545;-69
2023/03/01 14:56:57;;;;;;;9.68;7.05;;;8.30;84.60;;;;;;5034960;28;20161;-69
2023/03/01 14:59:24;;;;;;;14.30;9.75;;;8.30;84.80;;;;;;5033399;28;20679;-66
2023/03/01 15:01:52;;;;;;;9.93;7.90;;;8.30;85.30;;;;;;5034543;28;20661;-68
2023/03/01 15:04:19;;;;;;;11.27;8.88;;;8.30;85.60;;;;;;5034232;28;20197;-67
2023/03/01 15:06:46;;;;;;;11.07;8.23;;;8.20;85.70;;;;;;5034517;28;20530;-69
2023/03/01 15:09:16;;;;;;;13.25;8.82;;;8.20;85.10;;;;;;5034760;28;20176;-67
2023/03/01 15:11:43;;;;;;;12.05;8.57;;;8.30;85.60;;;;;;5033777;28;20177;-69
2023/03/01 15:14:42;;;;;;;9.60;6.95;;;8.30;85.20;;;;;;5033982;28;20202;-67
2023/03/01 15:17:38;;;;;;;9.48;7.75;;;8.40;85.50;;;;;;5033903;28;20238;-70
2023/03/01 15:20:07;;;;;;;10.32;7.03;;;8.40;84.90;;;;;;5033907;28;20259;-70
2023/03/01 15:22:33;;;;;;;9.07;7.65;;;8.40;84.50;;;;;;5034169;28;20180;-68
2023/03/01 15:24:59;;;;;;;10.43;6.70;;;8.40;84.50;;;;;;5033761;28;20189;-69
2023/03/01 15:27:25;;;;;;;13.33;8.00;;;8.40;84.20;;;;;;5034242;28;20405;-68
2023/03/01 15:29:58;;;;;;;12.05;8.23;;;8.30;84.20;;;;;;5034261;28;20397;-69
2023/03/01 15:32:31;;;;;;;8.57;7.75;;;8.30;84.40;;;;;;5030014;28;20177;-69
2023/03/01 15:35:20;;;;;;;11.20;7.85;;;8.30;84.40;;;;;;5033740;28;20195;-70
2023/03/01 15:37:48;;;;;;;13.20;8.77;;;8.20;84.40;;;;;;5033710;28;20170;-70
2023/03/01 15:40:31;;;;;;;11.85;7.30;;;8.20;84.40;;;;;;5015173;28;20208;-70
2023/03/01 15:42:58;;;;;;;9.85;8.40;;;8.20;84.30;;;;;;5032436;28;20173;-68
2023/03/01 15:45:27;;;;;;;9.65;8.00;;;8.20;84.80;;;;;;5033786;28;20193;-70
2023/03/01 15:47:54;;;;;;;13.68;9.30;;;8.20;84.50;;;;;;5032354;28;20548;-68
2023/03/01 15:50:29;;;;;;;9.93;8.32;;;8.10;84.00;;;;;;5033560;28;20641;-70
2023/03/01 15:52:56;;;;;;;10.48;7.80;;;8.10;84.00;;;;;;5033325;28;20228;-70
2023/03/01 15:55:29;;;;;;;12.68;7.68;;;8.10;84.10;;;;;;5033785;28;20193;-70
2023/03/01 15:58:04;;;;;;;14.48;9.35;;;8.10;84.10;;;;;;5033293;28;20178;-68
2023/03/01 16:00:30;;;;;;;16.20;9.15;;;8.00;84.70;;;;;;5017612;28;20189;-69
2023/03/01 16:02:56;;;;;;;10.67;7.20;;;8.00;84.00;;;;;;5032294;28;20173;-69
2023/03/01 16:05:28;;;;;;;15.55;9.20;;;8.00;83.90;;;;;;5033469;28;20189;-68
2023/03/01 16:07:54;;;;;;;10.95;8.70;;;7.90;83.70;;;;;;5033591;28;20196;-67
2023/03/01 16:10:20;;;;;;;29.67;8.82;;;7.90;83.50;;;;;;5033342;28;20179;-69
2023/03/01 16:12:50;;;;;;;10.25;7.22;;;7.90;83.60;;;;;;5031899;28;20174;-70
2023/03/01 16:15:22;;;;;;;9.82;6.95;;;7.90;83.90;;;;;;5033097;28;20189;-69
2023/03/01 16:17:48;;;;;;;13.20;8.13;;;7.80;83.50;;;;;;5033598;28;20529;-68
2023/03/01 16:20:15;;;;;;;10.77;6.80;;;7.80;83.60;;;;;;5032750;28;20236;-69
2023/03/01 16:22:42;;;;;;;13.38;8.05;;;7.80;83.70;;;;;;5033530;28;20253;-68
2023/03/01 16:25:14;;;;;;;15.48;8.05;;;7.80;84.00;;;;;;5033046;28;20190;-69
2023/03/01 16:27:42;;;;;;;7.70;6.07;;;7.70;84.00;;;;;;5033016;28;20223;-67
2023/03/01 16:30:09;;;;;;;12.77;8.88;;;7.70;84.10;;;;;;5032929;28;20648;-68
2023/03/01 16:32:41;;;;;;;12.77;9.60;;;7.70;84.10;;;;;;5032909;28;20264;-69
2023/03/01 16:35:09;;;;;;;17.77;8.60;;;7.60;84.40;;;;;;5032258;28;20203;-68
2023/03/01 16:37:35;;;;;;;11.75;8.30;;;7.60;84.40;;;;;;5032952;28;20175;-69
2023/03/01 16:40:04;;;;;;;18.35;7.78;;;7.60;84.50;;;;;;5032980;28;20248;-68
2023/03/01 16:42:36;;;;;;;13.07;6.80;;;7.60;84.70;;;;;;5032745;28;20203;-69
2023/03/01 16:45:03;;;;;;;13.77;7.80;;;7.50;84.90;;;;;;5032815;28;20197;-73
2023/03/01 16:47:29;;;;;;;11.55;8.23;;;7.50;85.20;;;;;;5033000;28;20314;-69
2023/03/01 16:49:55;;;;;;;10.05;6.55;;;7.40;85.50;;;;;;5029834;28;20178;-70
2023/03/01 16:52:22;;;;;;;13.73;7.80;;;7.40;85.80;;;;;;5032021;28;20591;-70
2023/03/01 16:54:47;;;;;;;12.75;7.40;;;7.30;86.00;;;;;;5032568;28;20197;-70
2023/03/01 16:57:14;;;;;;;11.83;8.13;;;7.30;86.20;;;;;;5033451;28;20184;-71
2023/03/01 16:59:40;;;;;;;9.73;7.65;;;7.30;86.40;;;;;;5025598;28;20837;-70
2023/03/01 17:02:10;;;;;;;11.90;9.85;;;7.20;86.30;;;;;;5024388;28;20224;-70
2023/03/01 17:04:36;;;;;;;16.33;8.13;;;7.20;86.60;;;;;;5030783;28;20197;-71
2023/03/01 17:07:01;;;;;;;14.60;7.83;;;7.10;86.70;;;;;;5030945;28;20710;-69
2023/03/01 17:09:27;;;;;;;14.23;8.37;;;7.10;86.90;;;;;;5027510;28;20183;-70
2023/03/01 17:11:54;;;;;;;12.80;8.87;;;7.10;87.20;;;;;;5023287;28;20196;-69
2023/03/01 17:14:19;;;;;;;9.75;7.72;;;7.00;87.60;;;;;;5023559;28;20202;-70
2023/03/01 17:16:45;;;;;;;11.30;7.47;;;6.90;87.80;;;;;;5022345;28;20663;-69
2023/03/01 17:19:12;;;;;;;11.27;7.33;;;6.90;88.00;;;;;;5025839;28;20269;-69
2023/03/01 17:21:38;;;;;;;13.45;8.13;;;6.80;88.30;;;;;;5030294;28;20173;-70
2023/03/01 17:24:04;;;;;;;12.73;8.00;;;6.80;88.80;;;;;;5036014;28;20182;-72
2023/03/01 17:26:30;;;;;;;9.00;6.53;;;6.70;89.10;;;;;;5019870;28;20184;-73
2023/03/01 17:28:57;;;;;;;10.07;7.47;;;6.70;89.30;;;;;;5026755;28;20172;-72
2023/03/01 17:31:23;;;;;;;9.02;6.15;;;6.60;89.30;;;;;;5031678;28;20421;-71
2023/03/01 17:33:51;;;;;;;13.77;10.63;;;6.50;89.80;;;;;;5033834;28;20540;-71
2023/03/01 17:36:17;;;;;;;13.30;7.78;;;6.40;90.20;;;;;;5036033;28;20426;-73
2023/03/01 17:38:42;;;;;;;12.00;7.32;;;6.30;90.40;;;;;;5022438;28;20530;-71
2023/03/01 17:41:10;;;;;;;12.30;7.33;;;6.20;90.70;;;;;;5035956;28;20175;-72
2023/03/01 17:43:37;;;;;;;11.13;8.30;;;6.20;90.80;;;;;;5034429;28;20197;-73
2023/03/01 17:46:02;;;;;;;15.00;9.45;;;6.10;91.00;;;;;;5033861;28;20177;-70
2023/03/01 17:48:28;;;;;;;13.80;8.40;;;6.00;91.10;;;;;;5033762;28;20252;-72
2023/03/01 17:50:54;;;;;;;11.00;7.13;;;6.00;91.30;;;;;;5035656;28;20525;-70
2023/03/01 17:53:20;;;;;;;12.52;8.00;;;5.90;91.50;;;;;;5032480;28;20177;-70
2023/03/01 17:55:52;;;;;;;12.43;7.37;;;5.80;91.80;;;;;;5029481;28;20191;-70
2023/03/01 17:58:21;;;;;;;12.50;8.45;;;5.70;92.00;;;;;;5028024;28;20486;-70
2023/03/01 18:00:48;;;;;;;13.82;8.35;;;5.70;92.00;;;;;;5024443;28;20169;-71
2023/03/01 18:03:14;;;;;;;13.10;8.93;;;5.60;92.10;;;;;;5024559;28;20257;-71
2023/03/01 18:05:40;;;;;;;12.23;7.60;;;5.60;92.20;;;;;;5025390;28;20291;-70
2023/03/01 18:08:05;;;;;;;16.07;9.83;;;5.60;92.20;;;;;;5026335;28;20182;-73
2023/03/01 18:10:33;;;;;;;15.77;8.90;;;5.50;92.30;;;;;;5027859;28;21018;-71
2023/03/01 18:12:58;;;;;;;12.35;8.10;;;5.50;92.80;;;;;;5024363;28;20174;-70
2023/03/01 18:15:24;;;;;;;8.80;7.90;;;5.40;92.50;;;;;;5031708;28;20195;-74